createdAt,value
2018-09-19T00:00:10.241Z,78.93
2018-09-19T00:05:10.979Z,78.76
2018-09-19T00:10:10.314Z,78.57
2018-09-19T00:15:11.328Z,79.41
2018-09-19T00:20:12.990Z,79.92
2018-09-19T00:25:14.201Z,79.34
2018-09-19T00:30:16.057Z,80.21
2018-09-19T00:35:16.729Z,80.40
2018-09-19T00:40:16.635Z,80.34
2018-09-19T00:45:17.518Z,81.29
2018-09-19T00:50:18.953Z,81.13
2018-09-19T00:55:20.651Z,81.90
2018-09-19T01:00:22.605Z,82.18
2018-09-19T01:05:22.207Z,82.36
2018-09-19T01:10:23.580Z,83.13
2018-09-19T01:15:23.796Z,82.95
2018-09-19T01:20:25.120Z,83.30
2018-09-19T01:25:26.549Z,83.52
2018-09-19T01:30:26.877Z,83.89
2018-09-19T01:35:28.858Z,84.05
2018-09-19T01:40:30.117Z,84.57
2018-09-19T01:45:30.204Z,84.79
2018-09-19T01:50:31.406Z,84.34
2018-09-19T01:55:32.537Z,84.83
2018-09-19T02:00:33.567Z,83.89
2018-09-19T02:05:34.885Z,83.84
2018-09-19T02:10:37.579Z,84.59
2018-09-19T02:15:38.635Z,84.45
2018-09-19T02:20:39.546Z,83.81
2018-09-19T02:25:41.662Z,83.62
2018-09-19T02:30:43.650Z,83.05
2018-09-19T02:35:44.011Z,84.29
2018-09-19T02:40:44.600Z,85.14
2018-09-19T02:45:45.331Z,85.70
2018-09-19T02:50:44.953Z,85.52
2018-09-19T02:55:47.099Z,85.05
2018-09-19T03:00:47.870Z,84.28
2018-09-19T03:05:49.172Z,84.50
2018-09-19T03:10:50.620Z,83.50
2018-09-19T03:15:51.536Z,84.42
2018-09-19T03:20:52.722Z,85.69
2018-09-19T03:25:53.448Z,86.11
2018-09-19T03:30:52.601Z,85.53
2018-09-19T03:35:54.399Z,86.25
2018-09-19T03:40:54.920Z,85.48
2018-09-19T03:45:56.180Z,85.39
2018-09-19T03:50:57.898Z,85.27
2018-09-19T03:55:57.545Z,85.94
2018-09-19T04:00:57.990Z,84.96
2018-09-19T04:05:59.305Z,85.29
2018-09-19T04:11:00.058Z,85.97
2018-09-19T04:16:00.306Z,86.25
2018-09-19T04:21:00.522Z,85.48
2018-09-19T04:26:02.298Z,84.36
2018-09-19T04:31:03.640Z,84.17
2018-09-19T04:36:03.737Z,84.54
2018-09-19T04:41:04.145Z,86.15
2018-09-19T04:46:05.356Z,86.25
2018-09-19T04:51:07.265Z,86.47
2018-09-19T04:56:08.669Z,85.73
2018-09-19T05:01:09.025Z,86.09
2018-09-19T05:06:09.171Z,85.10
2018-09-19T05:11:10.652Z,85.08
2018-09-19T05:16:12.116Z,85.26
2018-09-19T05:21:13.700Z,85.31
2018-09-19T05:26:15.412Z,82.64
2018-09-19T05:31:15.943Z,78.80
2018-09-19T05:36:17.625Z,73.74
2018-09-19T05:41:18.433Z,72.01
2018-09-19T05:46:24.648Z,68.90
2018-09-19T05:51:24.162Z,67.95
2018-09-19T05:56:26.232Z,63.57
2018-09-19T06:01:26.331Z,61.18
2018-09-19T06:06:26.129Z,63.31
2018-09-19T06:11:30.052Z,62.77
2018-09-19T06:16:30.869Z,61.32
2018-09-19T06:21:33.033Z,61.47
2018-09-19T06:26:34.309Z,62.19
2018-09-19T06:31:36.011Z,64.39
2018-09-19T06:36:37.770Z,64.78
2018-09-19T06:41:40.021Z,65.40
2018-09-19T06:46:42.437Z,67.61
2018-09-19T06:51:42.244Z,69.58
2018-09-19T06:56:43.486Z,69.89
2018-09-19T07:01:46.602Z,69.66
2018-09-19T07:06:46.244Z,71.45
2018-09-19T07:11:54.067Z,71.69
2018-09-19T07:16:54.188Z,71.62
2018-09-19T07:22:01.523Z,71.03
2018-09-19T07:27:11.952Z,68.98
2018-09-19T07:32:13.449Z,67.87
2018-09-19T07:37:15.711Z,68.12
2018-09-19T07:42:16.476Z,67.66
2018-09-19T07:47:16.136Z,66.63
2018-09-19T07:52:16.633Z,66.38
2018-09-19T07:57:16.322Z,66.83
2018-09-19T08:02:17.839Z,65.21
2018-09-19T08:07:19.081Z,65.23
2018-09-19T08:12:20.751Z,64.07
2018-09-19T08:17:22.793Z,63.71
2018-09-19T08:22:22.803Z,62.50
2018-09-19T08:27:25.026Z,60.97
2018-09-19T08:32:25.056Z,58.83
2018-09-19T08:37:25.738Z,57.62
2018-09-19T08:42:26.229Z,59.60
2018-09-19T08:47:28.009Z,58.50
2018-09-19T08:52:28.875Z,57.56
2018-09-19T08:57:29.846Z,56.50
2018-09-19T09:02:29.137Z,55.88
2018-09-19T09:07:38.203Z,54.11
2018-09-19T09:12:44.979Z,54.20
2018-09-19T09:17:58.300Z,52.44
2018-09-19T09:23:08.313Z,51.68
2018-09-19T09:28:16.910Z,50.35
2018-09-19T09:33:23.896Z,51.01
2018-09-19T09:38:30.247Z,52.25
2018-09-19T09:43:38.849Z,52.11
2018-09-19T09:48:45.323Z,51.00
2018-09-19T09:53:50.805Z,53.25
2018-09-19T09:58:51.083Z,53.12
2018-09-19T10:03:51.352Z,53.05
2018-09-19T10:08:52.879Z,52.08
2018-09-19T10:13:53.172Z,52.32
2018-09-19T10:18:54.253Z,51.28
2018-09-19T10:23:55.311Z,52.46
2018-09-19T10:28:54.677Z,52.13
2018-09-19T10:33:55.100Z,52.04
2018-09-19T10:38:55.007Z,52.05
2018-09-19T10:43:54.706Z,52.59
2018-09-19T10:48:56.482Z,52.58
2018-09-19T10:53:56.759Z,52.67
2018-09-19T10:58:58.127Z,52.04
2018-09-19T11:04:04.871Z,52.07
2018-09-19T11:09:18.061Z,51.41
2018-09-19T11:14:20.706Z,51.19
2018-09-19T11:19:19.550Z,51.84
2018-09-19T11:24:21.197Z,50.79
2018-09-19T11:34:32.449Z,51.60
2018-09-19T11:39:27.250Z,51.58
2018-09-19T11:44:23.998Z,51.97
2018-09-19T11:49:18.652Z,50.74
2018-09-19T11:54:13.243Z,50.55
2018-09-19T11:59:09.013Z,50.87
2018-09-19T12:04:04.276Z,49.75
2018-09-19T12:08:58.809Z,49.73
2018-09-19T12:13:54.084Z,48.75
2018-09-19T12:18:48.687Z,49.26
2018-09-19T12:23:43.260Z,48.54
2018-09-19T12:28:37.821Z,48.94
2018-09-19T12:33:32.358Z,49.35
2018-09-19T12:38:29.262Z,49.74
2018-09-19T12:43:24.209Z,48.58
2018-09-19T12:48:18.913Z,49.32
2018-09-19T12:53:13.638Z,48.69
2018-09-19T12:58:08.213Z,48.85
2018-09-19T13:03:03.145Z,47.85
2018-09-19T13:07:57.956Z,48.40
2018-09-19T13:12:52.590Z,48.79
2018-09-19T13:17:47.307Z,47.55
2018-09-19T13:22:42.020Z,46.79
2018-09-19T13:27:37.200Z,47.15
2018-09-19T13:32:31.968Z,47.49
2018-09-19T13:37:26.730Z,47.57
2018-09-19T13:42:21.532Z,47.50
2018-09-19T13:47:16.326Z,47.35
2018-09-19T13:52:11.175Z,48.26
2018-09-19T13:57:08.376Z,47.39
2018-09-19T14:02:02.983Z,47.72
2018-09-19T14:06:58.803Z,48.53
2018-09-19T14:11:53.432Z,47.52
2018-09-19T14:16:48.267Z,46.98
2018-09-19T14:21:43.072Z,47.04
2018-09-19T14:26:37.823Z,47.07
2018-09-19T14:31:32.435Z,47.44
2018-09-19T14:36:27.410Z,46.96
2018-09-19T14:41:22.046Z,46.34
2018-09-19T14:46:16.627Z,46.44
2018-09-19T14:51:21.622Z,45.80
2018-09-19T14:56:23.955Z,45.28
2018-09-19T15:01:19.604Z,46.96
2018-09-19T15:06:14.709Z,46.39
2018-09-19T15:11:10.492Z,45.91
2018-09-19T15:16:05.108Z,46.07
2018-09-19T15:20:59.883Z,46.24
2018-09-19T15:25:54.453Z,45.79
2018-09-19T15:30:49.294Z,45.58
2018-09-19T15:35:43.804Z,46.41
2018-09-19T15:40:38.416Z,47.37
2018-09-19T15:45:33.041Z,47.89
2018-09-19T15:50:27.607Z,49.21
2018-09-19T15:55:22.155Z,48.98
2018-09-19T16:00:17.408Z,49.37
2018-09-19T16:05:11.916Z,48.88
2018-09-19T16:10:06.457Z,48.83
2018-09-19T16:15:00.939Z,48.57
2018-09-19T16:19:55.483Z,47.75
2018-09-19T16:24:49.975Z,47.55
2018-09-19T16:29:44.455Z,48.04
2018-09-19T16:34:38.871Z,47.96
2018-09-19T16:39:33.346Z,48.06
2018-09-19T16:44:27.863Z,49.48
2018-09-19T16:49:22.292Z,49.92
2018-09-19T16:54:16.882Z,49.38
2018-09-19T16:59:11.328Z,49.82
2018-09-19T17:04:05.812Z,50.44
2018-09-19T17:09:00.272Z,50.40
2018-09-19T17:13:54.764Z,52.08
2018-09-19T17:18:49.416Z,52.78
2018-09-19T17:23:43.928Z,54.50
2018-09-19T17:28:38.396Z,55.16
2018-09-19T17:33:32.816Z,54.97
2018-09-19T17:38:27.324Z,56.09
2018-09-19T17:43:21.806Z,57.85
2018-09-19T17:48:16.292Z,58.60
2018-09-19T17:53:10.800Z,61.68
2018-09-19T17:58:05.467Z,62.18
2018-09-19T18:03:00.028Z,63.25
2018-09-19T18:07:54.508Z,65.09
2018-09-19T18:12:48.960Z,66.67
2018-09-19T18:17:43.392Z,66.80
2018-09-19T18:22:37.908Z,66.97
2018-09-19T18:27:32.403Z,67.74
2018-09-19T18:32:26.937Z,68.71
2018-09-19T18:37:21.389Z,69.01
2018-09-19T18:42:15.989Z,69.19
2018-09-19T18:47:10.460Z,70.09
2018-09-19T18:52:04.969Z,71.02
2018-09-19T18:56:59.510Z,71.86
2018-09-19T19:01:54.064Z,71.09
2018-09-19T19:06:48.501Z,71.23
2018-09-19T19:11:42.988Z,72.25
2018-09-19T19:16:37.476Z,72.92
2018-09-19T19:21:32.098Z,72.80
2018-09-19T19:26:26.584Z,72.55
2018-09-19T19:31:21.048Z,74.56
2018-09-19T19:36:15.585Z,73.66
2018-09-19T19:41:10.052Z,73.72
2018-09-19T19:46:04.537Z,73.96
2018-09-19T19:50:59.036Z,73.74
2018-09-19T19:55:53.509Z,73.35
2018-09-19T20:00:48.033Z,74.16
2018-09-19T20:05:42.597Z,74.33
2018-09-19T20:10:37.419Z,74.78
2018-09-19T20:15:31.813Z,74.25
2018-09-19T20:20:26.340Z,74.70
2018-09-19T20:25:20.847Z,74.30
2018-09-19T20:30:15.298Z,74.88
2018-09-19T20:35:09.801Z,74.50
2018-09-19T20:40:04.455Z,75.84
2018-09-19T20:44:58.917Z,75.68
2018-09-19T20:49:53.344Z,76.37
2018-09-19T20:54:47.828Z,76.09
2018-09-19T20:59:42.355Z,76.76
2018-09-19T21:04:36.889Z,77.24
2018-09-19T21:09:31.264Z,76.78
2018-09-19T21:14:25.720Z,77.58
2018-09-19T21:19:20.154Z,77.96
2018-09-19T21:24:14.636Z,78.76
2018-09-19T21:29:09.052Z,78.68
2018-09-19T21:34:03.596Z,78.54
2018-09-19T21:38:58.086Z,79.90
2018-09-19T21:43:52.571Z,79.36
2018-09-19T21:48:47.124Z,79.71
2018-09-19T21:53:41.588Z,79.15
2018-09-19T21:58:36.068Z,79.87
2018-09-19T22:03:30.617Z,79.98
2018-09-19T22:08:25.108Z,80.28
2018-09-19T22:13:19.569Z,80.70
2018-09-19T22:18:14.040Z,81.19
2018-09-19T22:23:08.508Z,81.17
2018-09-19T22:28:02.963Z,80.97
2018-09-19T22:32:57.448Z,81.41
2018-09-19T22:37:51.900Z,81.81
2018-09-19T22:42:46.364Z,81.25
2018-09-19T22:47:40.820Z,80.84
2018-09-19T22:52:35.252Z,80.33
2018-09-19T22:57:29.711Z,80.24
2018-09-19T23:02:24.176Z,81.78
2018-09-19T23:07:18.605Z,81.98
2018-09-19T23:12:13.062Z,82.18
2018-09-19T23:17:07.631Z,82.25
2018-09-19T23:22:02.326Z,82.12
2018-09-19T23:26:56.776Z,82.96
2018-09-19T23:31:51.227Z,82.23
2018-09-19T23:36:45.661Z,82.18
2018-09-19T23:41:40.120Z,83.44
2018-09-19T23:46:34.617Z,82.51
2018-09-19T23:51:29.076Z,82.63
2018-09-19T23:56:23.524Z,82.93
